createdAt,value
2022-12-01T00:01:17.437Z,1.59
2022-12-01T00:03:45.146Z,1.56
2022-12-01T00:06:15.597Z,1.58
2022-12-01T00:09:04.497Z,1.59
2022-12-01T00:11:33.066Z,1.61
2022-12-01T00:14:01.084Z,1.63
2022-12-01T00:16:28.859Z,1.61
2022-12-01T00:18:56.798Z,1.55
2022-12-01T00:21:25.869Z,1.48
2022-12-01T00:23:54.768Z,1.39
2022-12-01T00:26:23.198Z,1.41
2022-12-01T00:28:52.568Z,1.41
2022-12-01T00:31:20.600Z,1.41
2022-12-01T00:33:48.296Z,1.41
2022-12-01T00:36:16.143Z,1.43
2022-12-01T00:38:43.839Z,1.43
2022-12-01T00:41:11.494Z,1.41
2022-12-01T00:43:39.784Z,1.41
2022-12-01T00:46:09.089Z,1.43
2022-12-01T00:48:36.815Z,1.43
2022-12-01T00:51:04.664Z,1.42
2022-12-01T00:53:32.490Z,1.31
2022-12-01T00:56:00.181Z,1.36
2022-12-01T00:58:28.017Z,1.36
2022-12-01T01:00:58.568Z,1.37
2022-12-01T01:03:27.875Z,1.31
2022-12-01T01:05:55.565Z,1.33
2022-12-01T01:08:23.273Z,1.36
2022-12-01T01:10:50.904Z,1.35
2022-12-01T01:13:18.562Z,1.38
2022-12-01T01:15:46.243Z,1.41
2022-12-01T01:18:14.112Z,1.42
2022-12-01T01:20:43.127Z,1.43
2022-12-01T01:23:10.743Z,1.37
2022-12-01T01:25:38.398Z,1.16
2022-12-01T01:28:06.031Z,1.13
2022-12-01T01:30:33.913Z,1.18
2022-12-01T01:33:01.697Z,1.23
2022-12-01T01:35:29.281Z,1.19
2022-12-01T01:37:58.310Z,1.20
2022-12-01T01:40:25.916Z,1.22
2022-12-01T01:42:53.539Z,1.26
2022-12-01T01:45:22.679Z,1.28
2022-12-01T01:47:51.088Z,1.32
2022-12-01T01:50:20.868Z,1.34
2022-12-01T01:52:52.905Z,1.35
2022-12-01T01:55:21.758Z,1.33
2022-12-01T01:57:49.469Z,1.27
2022-12-01T02:00:19.382Z,1.23
2022-12-01T02:02:48.405Z,1.19
2022-12-01T02:05:19.684Z,1.19
2022-12-01T02:07:48.421Z,1.23
2022-12-01T02:10:22.319Z,1.26
2022-12-01T02:13:09.610Z,1.27
2022-12-01T02:15:42.011Z,1.30
2022-12-01T02:18:21.946Z,1.35
2022-12-01T02:21:21.757Z,1.41
2022-12-01T02:24:28.363Z,1.40
2022-12-01T02:27:02.778Z,1.38
2022-12-01T02:30:08.745Z,1.38
2022-12-01T02:32:45.806Z,1.29
2022-12-01T02:35:15.803Z,1.28
2022-12-01T02:37:48.275Z,1.29
2022-12-01T02:40:20.109Z,1.28
2022-12-01T02:42:52.290Z,1.26
2022-12-01T02:45:27.286Z,1.32
2022-12-01T02:47:58.641Z,1.29
2022-12-01T02:50:26.930Z,1.30
2022-12-01T02:52:55.271Z,1.30
2022-12-01T02:55:22.938Z,1.31
2022-12-01T02:57:50.607Z,1.32
2022-12-01T03:00:19.550Z,1.33
2022-12-01T03:03:00.015Z,1.35
2022-12-01T03:05:32.293Z,1.34
2022-12-01T03:08:03.333Z,1.33
2022-12-01T03:10:37.688Z,1.34
2022-12-01T03:13:15.071Z,1.28
2022-12-01T03:15:49.695Z,1.31
2022-12-01T03:18:27.025Z,1.32
2022-12-01T03:20:58.284Z,1.28
2022-12-01T03:23:28.721Z,1.20
2022-12-01T03:25:57.829Z,1.22
2022-12-01T03:28:30.293Z,1.24
2022-12-01T03:31:00.677Z,1.24
2022-12-01T03:33:34.652Z,1.24
2022-12-01T03:36:04.784Z,1.17
2022-12-01T03:38:33.599Z,1.19
2022-12-01T03:41:03.396Z,1.19
2022-12-01T03:43:33.269Z,1.22
2022-12-01T03:46:05.891Z,1.23
2022-12-01T03:48:35.582Z,1.26
2022-12-01T03:51:06.769Z,1.22
2022-12-01T03:53:38.102Z,1.23
2022-12-01T03:56:07.509Z,1.24
2022-12-01T03:58:38.584Z,1.26
2022-12-01T04:01:06.574Z,1.29
2022-12-01T04:03:35.675Z,1.30
2022-12-01T04:06:03.273Z,1.31
2022-12-01T04:08:31.018Z,1.34
2022-12-01T04:10:58.728Z,1.34
2022-12-01T04:13:25.851Z,1.35
2022-12-01T04:15:54.630Z,1.33
2022-12-01T04:18:22.879Z,1.30
2022-12-01T04:20:51.944Z,1.31
2022-12-01T04:23:33.498Z,1.33
2022-12-01T04:26:01.727Z,1.32
2022-12-01T04:28:29.474Z,1.28
2022-12-01T04:30:57.329Z,1.27
2022-12-01T04:33:25.048Z,1.24
2022-12-01T04:36:00.920Z,1.27
2022-12-01T04:38:31.089Z,1.28
2022-12-01T04:40:58.902Z,1.32
2022-12-01T04:43:26.579Z,1.31
2022-12-01T04:45:54.250Z,1.31
2022-12-01T04:48:21.882Z,1.34
2022-12-01T04:50:50.139Z,1.36
2022-12-01T04:53:19.121Z,1.36
2022-12-01T04:55:46.745Z,1.36
2022-12-01T04:58:14.378Z,1.35
2022-12-01T05:00:42.118Z,1.33
2022-12-01T05:03:14.842Z,1.28
2022-12-01T05:05:42.895Z,1.33
2022-12-01T05:08:10.641Z,1.34
2022-12-01T05:10:39.857Z,1.34
2022-12-01T05:13:07.554Z,1.25
2022-12-01T05:15:35.425Z,1.24
2022-12-01T05:18:03.209Z,1.25
2022-12-01T05:20:48.306Z,1.22
2022-12-01T05:23:17.128Z,1.23
2022-12-01T05:25:46.223Z,1.26
2022-12-01T05:28:13.924Z,1.25
2022-12-01T05:30:41.872Z,1.27
2022-12-01T05:33:09.504Z,1.29
2022-12-01T05:35:37.218Z,1.32
2022-12-01T05:38:08.021Z,1.31
2022-12-01T05:40:36.624Z,1.34
2022-12-01T05:43:06.009Z,1.34
2022-12-01T05:45:34.112Z,1.29
2022-12-01T05:48:03.175Z,1.26
2022-12-01T05:50:31.790Z,1.29
2022-12-01T05:52:59.678Z,1.27
2022-12-01T05:55:27.380Z,1.26
2022-12-01T05:57:55.060Z,1.24
2022-12-01T06:00:24.185Z,1.25
2022-12-01T06:02:51.842Z,1.27
2022-12-01T06:05:19.493Z,1.30
2022-12-01T06:07:47.237Z,1.30
2022-12-01T06:10:15.015Z,1.34
2022-12-01T06:12:42.711Z,1.36
2022-12-01T06:15:12.714Z,1.37
2022-12-01T06:17:41.772Z,1.34
2022-12-01T06:20:11.100Z,1.36
2022-12-01T06:22:38.769Z,1.38
2022-12-01T06:25:07.459Z,1.42
2022-12-01T06:27:35.178Z,1.46
2022-12-01T06:30:02.954Z,1.47
2022-12-01T06:32:30.860Z,1.49
2022-12-01T06:35:00.005Z,1.51
2022-12-01T06:37:28.385Z,1.52
2022-12-01T06:39:56.060Z,1.52
2022-12-01T06:42:23.774Z,1.55
2022-12-01T06:44:51.388Z,1.59
2022-12-01T06:47:19.083Z,1.62
2022-12-01T06:49:46.938Z,1.60
2022-12-01T06:52:16.263Z,1.59
2022-12-01T06:54:43.969Z,1.59
2022-12-01T06:57:11.827Z,1.60
2022-12-01T06:59:39.547Z,1.63
2022-12-01T07:02:07.586Z,1.64
2022-12-01T07:04:35.245Z,1.64
2022-12-01T07:07:03.006Z,1.67
2022-12-01T07:09:31.977Z,1.67
2022-12-01T07:11:59.636Z,1.70
2022-12-01T07:14:27.989Z,1.70
2022-12-01T07:16:55.952Z,1.71
2022-12-01T07:19:23.621Z,1.68
2022-12-01T07:21:51.345Z,1.68
2022-12-01T07:24:19.084Z,1.70
2022-12-01T07:26:48.500Z,1.70
2022-12-01T07:29:16.122Z,1.72
2022-12-01T07:31:43.932Z,1.74
2022-12-01T07:34:12.393Z,1.77
2022-12-01T07:36:40.159Z,1.67
2022-12-01T07:39:08.153Z,1.65
2022-12-01T07:41:36.333Z,1.73
2022-12-01T07:44:05.716Z,1.72
2022-12-01T07:46:33.481Z,1.72
2022-12-01T07:49:01.210Z,1.73
2022-12-01T19:38:10.375Z,2.53
2022-12-01T19:40:38.535Z,2.57
2022-12-01T19:43:06.534Z,2.66
2022-12-01T19:45:35.462Z,2.73
2022-12-01T19:48:04.367Z,2.79
2022-12-01T19:50:35.029Z,2.80
2022-12-01T19:53:02.795Z,2.81
2022-12-01T19:55:32.073Z,2.77
2022-12-01T19:57:59.923Z,2.76
2022-12-01T20:00:27.683Z,2.74
2022-12-01T20:02:55.366Z,2.77
2022-12-01T20:05:23.045Z,2.78
2022-12-01T20:07:50.808Z,2.78
2022-12-01T20:10:20.562Z,2.77
2022-12-01T20:12:49.749Z,2.81
2022-12-01T20:15:17.711Z,2.77
2022-12-01T20:17:45.454Z,2.72
2022-12-01T20:20:15.092Z,2.74
2022-12-01T20:22:42.889Z,2.71
2022-12-01T20:25:10.695Z,2.65
2022-12-01T20:27:38.494Z,2.64
2022-12-01T20:30:09.393Z,2.59
2022-12-01T20:32:37.188Z,2.56
2022-12-01T20:35:05.921Z,2.53
2022-12-01T20:37:33.621Z,2.56
2022-12-01T20:40:01.295Z,2.60
2022-12-01T20:42:29.005Z,2.62
2022-12-01T20:44:56.844Z,2.58
2022-12-01T20:47:26.025Z,2.59
2022-12-01T20:49:58.163Z,2.64
2022-12-01T20:52:26.294Z,2.63
2022-12-01T20:54:53.972Z,2.65
2022-12-01T20:57:21.688Z,2.66
2022-12-01T20:59:49.445Z,2.67
2022-12-01T21:02:17.226Z,2.63
2022-12-01T21:04:46.275Z,2.50
2022-12-01T21:07:14.017Z,2.43
2022-12-01T21:09:41.692Z,2.39
2022-12-01T21:12:28.121Z,2.44
2022-12-01T21:15:02.744Z,2.46
2022-12-01T21:17:42.665Z,2.46
2022-12-01T21:20:21.370Z,2.43
2022-12-01T21:22:50.574Z,2.44
2022-12-01T21:25:22.271Z,2.42
2022-12-01T21:27:50.184Z,2.43
2022-12-01T21:30:19.598Z,2.40
2022-12-01T21:32:47.809Z,2.40
2022-12-01T21:35:19.677Z,2.40
2022-12-01T21:37:48.140Z,2.40
2022-12-01T21:40:18.514Z,2.41
2022-12-01T21:42:46.273Z,2.42
2022-12-01T21:45:19.392Z,2.42
2022-12-01T21:47:47.145Z,2.44
2022-12-01T21:50:19.917Z,2.46
2022-12-01T21:52:47.868Z,2.48
2022-12-01T21:55:36.173Z,2.42
2022-12-01T21:58:09.022Z,2.41
2022-12-01T22:00:37.959Z,2.43
2022-12-01T22:03:31.742Z,2.46
2022-12-01T22:08:53.614Z,2.42
2022-12-01T22:11:23.182Z,2.43
2022-12-01T22:13:54.468Z,2.45
2022-12-01T22:16:23.716Z,2.44
2022-12-01T22:18:53.137Z,2.43
2022-12-01T22:21:38.200Z,2.43
2022-12-01T22:24:27.558Z,2.44
2022-12-01T22:27:06.976Z,2.39
2022-12-01T22:29:39.555Z,2.35
2022-12-01T22:32:41.660Z,2.29
2022-12-01T22:35:32.866Z,2.26
2022-12-01T22:38:16.560Z,2.30
2022-12-01T22:40:48.445Z,2.29
2022-12-01T22:43:26.973Z,2.31
2022-12-01T22:46:03.049Z,2.29
2022-12-01T22:48:35.660Z,2.28
2022-12-01T22:51:17.810Z,2.28
2022-12-01T22:53:47.341Z,2.24
2022-12-01T22:56:27.924Z,2.23
2022-12-01T22:58:56.188Z,2.23
2022-12-01T23:01:27.381Z,2.27
2022-12-01T23:03:59.939Z,2.31
2022-12-01T23:06:54.122Z,2.31
2022-12-01T23:09:24.871Z,2.36
2022-12-01T23:11:56.415Z,2.33
2022-12-01T23:14:24.621Z,2.33
2022-12-01T23:16:53.197Z,2.35
2022-12-01T23:19:20.871Z,2.38
2022-12-01T23:21:48.633Z,2.30
2022-12-01T23:24:17.164Z,2.30
2022-12-01T23:26:47.381Z,2.29
2022-12-01T23:29:15.082Z,2.29
2022-12-01T23:31:42.913Z,2.29
2022-12-01T23:34:14.444Z,2.31
2022-12-01T23:36:42.500Z,2.34
2022-12-01T23:39:14.189Z,2.35
2022-12-01T23:41:43.384Z,2.37
2022-12-01T23:44:20.196Z,2.34
2022-12-01T23:46:48.919Z,2.36
2022-12-01T23:49:18.307Z,2.38
2022-12-01T23:51:48.273Z,2.37
2022-12-01T23:54:20.333Z,2.36
2022-12-01T23:56:48.952Z,2.36
2022-12-01T23:59:17.934Z,2.39
